createdAt,value
2019-01-17T00:02:16.245Z,34.37
2019-01-17T00:05:07.576Z,35.73
2019-01-17T00:07:54.714Z,33.33
2019-01-17T00:10:49.345Z,34.50
2019-01-17T00:13:55.450Z,34.63
2019-01-17T00:16:44.008Z,31.73
2019-01-17T00:19:38.208Z,31.17
2019-01-17T00:22:25.503Z,33.70
2019-01-17T00:25:13.878Z,30.97
2019-01-17T00:28:05.077Z,35.83
2019-01-17T00:30:51.168Z,42.20
2019-01-17T00:33:38.249Z,40.03
2019-01-17T00:36:25.532Z,34.83
2019-01-17T00:39:20.470Z,34.50
2019-01-17T00:42:20.918Z,37.63
2019-01-17T00:45:08.424Z,33.53
2019-01-17T00:47:53.030Z,37.63
2019-01-17T00:50:41.424Z,37.30
2019-01-17T00:53:39.267Z,37.13
2019-01-17T00:56:30.433Z,36.83
2019-01-17T00:59:17.435Z,39.33
2019-01-17T01:02:15.105Z,33.63
2019-01-17T01:05:02.331Z,36.17
2019-01-17T01:07:50.759Z,38.67
2019-01-17T01:10:47.649Z,36.03
2019-01-17T01:13:36.049Z,38.53
2019-01-17T01:16:44.666Z,36.97
2019-01-17T01:19:28.582Z,36.60
2019-01-17T01:22:16.957Z,32.53
2019-01-17T01:25:11.173Z,34.53
2019-01-17T01:28:05.344Z,36.17
2019-01-17T01:30:52.663Z,34.93
2019-01-17T01:33:51.587Z,40.03
2019-01-17T01:36:40.025Z,38.87
2019-01-17T01:39:27.039Z,37.47
2019-01-17T01:42:14.294Z,37.87
2019-01-17T01:45:17.906Z,38.93
2019-01-17T01:48:06.320Z,39.23
2019-01-17T01:50:53.290Z,38.27
2019-01-17T01:53:22.755Z,42.47
2019-01-17T01:55:52.193Z,37.07
2019-01-17T01:58:21.638Z,35.53
2019-01-17T02:00:51.142Z,36.93
2019-01-17T02:03:20.606Z,37.40
2019-01-17T02:05:50.077Z,37.13
2019-01-17T02:08:19.552Z,40.13
2019-01-17T02:10:48.982Z,35.37
2019-01-17T02:13:18.773Z,34.27
2019-01-17T02:15:48.243Z,34.17
2019-01-17T02:18:17.710Z,36.07
2019-01-17T02:20:47.138Z,35.93
2019-01-17T02:23:16.608Z,39.63
2019-01-17T02:25:46.056Z,36.47
2019-01-17T02:28:15.487Z,39.83
2019-01-17T02:30:44.954Z,35.93
2019-01-17T02:33:14.376Z,32.10
2019-01-17T02:35:43.830Z,40.40
2019-01-17T02:38:13.301Z,32.43
2019-01-17T02:40:42.736Z,36.93
2019-01-17T02:43:12.183Z,34.00
2019-01-17T02:45:41.659Z,36.60
2019-01-17T02:48:11.114Z,33.87
2019-01-17T02:50:40.558Z,37.03
2019-01-17T02:53:10.023Z,34.07
2019-01-17T02:55:39.455Z,38.87
2019-01-17T02:58:08.898Z,36.87
2019-01-17T03:00:38.398Z,37.80
2019-01-17T03:03:07.834Z,32.33
2019-01-17T03:05:37.271Z,37.20
2019-01-17T03:08:06.782Z,36.97
2019-01-17T03:10:36.217Z,37.67
2019-01-17T03:13:05.751Z,44.57
2019-01-17T03:15:35.224Z,39.43
2019-01-17T03:18:04.813Z,40.43
2019-01-17T03:20:34.233Z,41.80
2019-01-17T03:23:03.674Z,38.67
2019-01-17T03:25:33.141Z,36.80
2019-01-17T03:28:02.576Z,39.10
2019-01-17T03:30:32.160Z,39.57
2019-01-17T03:33:01.682Z,41.30
2019-01-17T03:35:31.131Z,44.93
2019-01-17T03:38:00.561Z,43.10
2019-01-17T03:40:31.669Z,41.07
2019-01-17T03:43:01.092Z,44.03
2019-01-17T03:45:30.513Z,47.53
2019-01-17T03:47:59.988Z,41.17
2019-01-17T03:50:29.437Z,45.03
2019-01-17T03:52:58.854Z,51.13
2019-01-17T03:55:28.739Z,43.40
2019-01-17T03:57:58.179Z,44.80
2019-01-17T04:00:27.633Z,44.17
2019-01-17T04:02:57.076Z,48.47
2019-01-17T04:05:26.522Z,42.73
2019-01-17T04:07:55.983Z,44.20
2019-01-17T04:10:25.470Z,45.40
2019-01-17T04:12:54.923Z,46.03
2019-01-17T04:15:24.400Z,48.43
2019-01-17T04:17:53.873Z,49.70
2019-01-17T04:20:23.296Z,45.33
2019-01-17T04:22:52.749Z,46.67
2019-01-17T04:25:22.235Z,50.17
2019-01-17T04:27:51.664Z,44.70
2019-01-17T04:30:21.133Z,44.40
2019-01-17T04:32:50.557Z,52.47
2019-01-17T04:35:19.985Z,42.97
2019-01-17T04:37:49.477Z,38.37
2019-01-17T04:40:18.921Z,38.93
2019-01-17T04:42:48.454Z,46.17
2019-01-17T04:45:17.951Z,44.03
2019-01-17T04:47:47.401Z,37.60
2019-01-17T04:50:17.240Z,43.30
2019-01-17T04:52:46.742Z,40.87
2019-01-17T04:55:16.182Z,50.37
2019-01-17T04:57:45.606Z,47.10
2019-01-17T05:00:18.119Z,47.53
2019-01-17T05:02:47.569Z,48.87
2019-01-17T05:05:17.118Z,44.50
2019-01-17T05:07:46.600Z,48.13
2019-01-17T05:10:16.441Z,41.60
2019-01-17T05:12:45.864Z,42.63
2019-01-17T05:15:15.529Z,44.90
2019-01-17T05:17:45.021Z,43.47
2019-01-17T05:20:16.470Z,43.87
2019-01-17T05:22:45.904Z,39.77
2019-01-17T05:25:15.436Z,43.60
2019-01-17T05:27:44.875Z,41.33
2019-01-17T05:30:16.632Z,41.53
2019-01-17T05:32:46.394Z,41.50
2019-01-17T05:35:16.013Z,38.03
2019-01-17T05:37:45.620Z,42.03
2019-01-17T05:40:17.202Z,49.03
2019-01-17T05:42:46.748Z,34.37
2019-01-17T05:45:16.437Z,32.43
2019-01-17T05:47:45.978Z,31.53
2019-01-17T05:50:16.460Z,36.73
2019-01-17T05:52:45.942Z,38.47
2019-01-17T05:55:19.641Z,33.67
2019-01-17T05:57:46.480Z,32.80
2019-01-17T06:00:20.667Z,31.73
2019-01-17T06:02:50.195Z,29.60
2019-01-17T06:05:19.937Z,31.47
2019-01-17T06:07:49.421Z,29.67
2019-01-17T06:10:18.769Z,27.60
2019-01-17T06:12:48.234Z,33.10
2019-01-17T06:15:20.701Z,33.37
2019-01-17T06:17:50.165Z,34.20
2019-01-17T06:20:19.740Z,32.37
2019-01-17T06:22:49.229Z,28.93
2019-01-17T06:25:18.677Z,36.83
2019-01-17T06:27:48.242Z,29.83
2019-01-17T06:30:17.731Z,29.77
2019-01-17T06:32:47.161Z,29.53
2019-01-17T06:35:16.601Z,24.50
2019-01-17T06:37:46.086Z,25.00
2019-01-17T06:40:21.821Z,26.63
2019-01-17T06:42:51.290Z,27.27
2019-01-17T06:45:20.729Z,28.10
2019-01-17T06:47:50.383Z,22.13
2019-01-17T06:50:19.861Z,26.17
2019-01-17T06:52:49.289Z,28.07
2019-01-17T06:55:18.736Z,26.47
2019-01-17T06:57:48.223Z,24.97
2019-01-17T07:00:17.745Z,25.33
2019-01-17T07:02:47.175Z,24.50
2019-01-17T07:05:16.654Z,23.37
2019-01-17T07:07:46.093Z,22.83
2019-01-17T07:10:16.680Z,25.20
2019-01-17T07:12:46.303Z,23.77
2019-01-17T07:15:15.870Z,21.70
2019-01-17T07:17:45.300Z,26.00
2019-01-17T07:20:16.940Z,22.53
2019-01-17T07:22:46.501Z,24.93
2019-01-17T07:25:15.945Z,24.37
2019-01-17T07:27:45.430Z,23.50
2019-01-17T07:30:20.299Z,26.40
2019-01-17T07:32:49.811Z,28.73
2019-01-17T07:35:19.368Z,38.50
2019-01-17T07:37:48.909Z,33.33
2019-01-17T07:40:18.387Z,34.53
2019-01-17T07:42:47.800Z,33.47
2019-01-17T07:45:20.221Z,25.97
2019-01-17T07:47:49.664Z,26.37
2019-01-17T07:50:19.107Z,31.33
2019-01-17T07:52:48.588Z,19.83
2019-01-17T07:55:18.167Z,24.43
2019-01-17T07:57:47.617Z,19.33
2019-01-17T08:00:19.219Z,21.00
2019-01-17T08:02:48.704Z,22.23
2019-01-17T08:05:18.437Z,21.63
2019-01-17T08:07:47.868Z,21.27
2019-01-17T08:10:18.531Z,20.27
2019-01-17T08:12:48.150Z,18.93
2019-01-17T08:15:17.851Z,21.70
2019-01-17T08:17:47.308Z,21.87
2019-01-17T08:20:22.297Z,17.43
2019-01-17T08:22:51.840Z,17.57
2019-01-17T08:25:21.444Z,16.50
2019-01-17T08:27:50.876Z,18.67
2019-01-17T08:30:22.866Z,13.30
2019-01-17T08:32:52.354Z,17.63
2019-01-17T08:35:21.782Z,19.70
2019-01-17T08:37:51.220Z,20.30
2019-01-17T08:40:23.678Z,18.30
2019-01-17T08:42:53.246Z,18.17
2019-01-17T08:45:22.685Z,15.37
2019-01-17T08:47:52.161Z,19.30
2019-01-17T08:50:21.692Z,24.03
2019-01-17T08:52:51.238Z,17.83
2019-01-17T08:55:20.687Z,16.73
2019-01-17T08:57:50.246Z,16.93
2019-01-17T09:00:21.397Z,17.17
2019-01-17T09:02:50.894Z,16.63
2019-01-17T09:05:20.342Z,17.00
2019-01-17T09:07:49.800Z,18.57
2019-01-17T09:10:21.720Z,15.13
2019-01-17T09:12:51.245Z,16.67
2019-01-17T09:15:22.445Z,16.57
2019-01-17T09:17:51.954Z,16.37
2019-01-17T09:20:21.459Z,15.70
2019-01-17T09:22:50.901Z,13.57
2019-01-17T09:25:20.381Z,14.97
2019-01-17T09:27:49.853Z,13.33
2019-01-17T09:30:19.613Z,19.57
2019-01-17T09:32:49.084Z,15.63
2019-01-17T09:35:18.629Z,18.27
2019-01-17T09:37:48.485Z,18.50
2019-01-17T09:40:19.667Z,16.27
2019-01-17T09:42:49.189Z,22.67
2019-01-17T09:45:18.638Z,19.37
2019-01-17T09:47:48.127Z,15.50
2019-01-17T09:50:22.134Z,18.17
2019-01-17T09:52:52.008Z,19.27
2019-01-17T09:55:21.468Z,20.50
2019-01-17T09:57:50.889Z,17.27
2019-01-17T10:00:23.084Z,18.17
2019-01-17T10:02:52.627Z,18.53
2019-01-17T10:05:22.073Z,18.83
2019-01-17T10:07:51.721Z,20.53
2019-01-17T10:10:21.217Z,18.53
2019-01-17T10:12:50.645Z,19.17
2019-01-17T10:15:28.358Z,23.83
2019-01-17T10:18:19.158Z,17.87
2019-01-17T10:21:26.924Z,17.93
2019-01-17T10:24:46.979Z,15.57
2019-01-17T10:27:57.886Z,22.13
2019-01-17T10:31:04.734Z,19.47
2019-01-17T10:34:15.333Z,22.43
2019-01-17T10:37:09.113Z,20.93
2019-01-17T10:40:22.154Z,20.03
2019-01-17T10:43:37.706Z,18.73
2019-01-17T10:46:48.300Z,15.37
2019-01-17T10:50:07.690Z,19.97
2019-01-17T10:53:01.509Z,21.27
2019-01-17T10:56:33.214Z,15.73
2019-01-17T10:59:30.717Z,28.93
2019-01-17T11:02:52.421Z,27.20
2019-01-17T11:05:57.735Z,17.67
2019-01-17T11:09:20.528Z,19.60
2019-01-17T11:12:28.368Z,18.40
2019-01-17T11:15:25.492Z,17.00
2019-01-17T11:18:27.828Z,17.80
2019-01-17T11:21:56.604Z,17.23
2019-01-17T11:24:47.869Z,22.50
2019-01-17T11:27:41.431Z,23.20
2019-01-17T11:30:55.013Z,19.47
2019-01-17T11:33:48.555Z,21.83
2019-01-17T11:36:36.922Z,19.80
2019-01-17T11:39:51.120Z,23.13
2019-01-17T11:42:45.652Z,20.73
2019-01-17T11:45:36.841Z,19.07
2019-01-17T11:48:31.800Z,17.80
2019-01-17T11:51:42.527Z,22.40
2019-01-17T11:54:46.898Z,19.40
2019-01-17T11:57:56.669Z,18.80
2019-01-17T12:01:10.175Z,25.47
2019-01-17T12:04:12.797Z,23.00
2019-01-17T12:06:42.322Z,20.37
2019-01-17T12:09:11.753Z,28.10
2019-01-17T12:11:41.220Z,22.43
2019-01-17T12:14:10.715Z,21.77
2019-01-17T12:16:40.145Z,20.97
2019-01-17T12:19:10.510Z,20.33
2019-01-17T12:21:39.997Z,23.73
2019-01-17T12:24:09.596Z,27.63
2019-01-17T12:26:38.987Z,26.13
2019-01-17T12:29:08.489Z,21.30
2019-01-17T12:31:37.928Z,22.47
2019-01-17T12:34:07.296Z,21.23
2019-01-17T12:36:36.839Z,23.70
2019-01-17T12:39:09.442Z,22.53
2019-01-17T12:41:38.914Z,23.97
2019-01-17T12:44:08.546Z,24.07
2019-01-17T12:46:38.004Z,19.97
2019-01-17T12:49:07.503Z,21.30
2019-01-17T12:51:37.031Z,21.13
2019-01-17T12:54:06.714Z,26.77
2019-01-17T12:56:36.188Z,27.53
2019-01-17T12:59:05.752Z,23.17
2019-01-17T13:01:35.232Z,23.93
2019-01-17T13:04:05.114Z,23.67
2019-01-17T13:06:34.634Z,24.63
2019-01-17T13:09:05.566Z,26.30
2019-01-17T13:11:35.085Z,28.23
2019-01-17T13:14:08.653Z,22.70
2019-01-17T13:16:38.148Z,24.27
2019-01-17T13:19:07.610Z,23.93
2019-01-17T13:21:37.093Z,26.67
2019-01-17T13:24:06.605Z,28.60
2019-01-17T13:26:36.081Z,32.17
2019-01-17T13:29:05.590Z,28.10
2019-01-17T13:31:35.067Z,24.50
2019-01-17T13:34:04.563Z,26.37
2019-01-17T13:36:40.095Z,22.57
2019-01-17T13:39:07.795Z,22.83
2019-01-17T13:41:37.267Z,23.07
2019-01-17T13:44:06.774Z,24.00
2019-01-17T13:46:36.252Z,18.43
2019-01-17T13:49:05.823Z,26.90
2019-01-17T13:51:35.360Z,23.60
2019-01-17T13:54:05.076Z,25.70
2019-01-17T13:56:34.562Z,23.10
2019-01-17T13:59:04.077Z,24.20
2019-01-17T14:01:33.534Z,27.47
2019-01-17T14:04:03.028Z,27.90
2019-01-17T14:06:32.550Z,27.33
2019-01-17T14:09:02.016Z,31.63
2019-01-17T14:11:31.468Z,33.93
2019-01-17T14:14:01.014Z,26.90
2019-01-17T14:16:30.466Z,29.20
2019-01-17T14:19:00.002Z,31.57
2019-01-17T14:21:29.517Z,28.93
2019-01-17T14:23:59.000Z,31.30
2019-01-17T14:26:30.575Z,24.50
2019-01-17T14:29:00.126Z,32.77
2019-01-17T14:31:29.610Z,34.77
2019-01-17T14:33:59.085Z,29.00
2019-01-17T14:36:28.606Z,24.43
2019-01-17T14:38:59.434Z,25.67
2019-01-17T14:41:28.944Z,24.40
2019-01-17T14:43:59.550Z,31.57
2019-01-17T14:46:29.072Z,28.57
2019-01-17T14:49:00.566Z,36.10
2019-01-17T14:51:30.136Z,30.67
2019-01-17T14:53:59.641Z,24.90
2019-01-17T14:56:29.162Z,23.07
2019-01-17T14:58:59.031Z,20.97
2019-01-17T15:01:30.540Z,29.10
2019-01-17T15:04:00.001Z,24.57
2019-01-17T15:06:29.560Z,27.33
2019-01-17T15:08:59.063Z,27.87
2019-01-17T15:11:30.662Z,21.33
2019-01-17T15:14:00.175Z,30.40
2019-01-17T15:16:29.645Z,26.23
2019-01-17T15:18:59.405Z,22.57
2019-01-17T15:21:28.998Z,21.93
2019-01-17T15:23:58.862Z,23.53
2019-01-17T15:26:29.456Z,26.77
2019-01-17T15:29:00.169Z,25.90
2019-01-17T15:31:29.643Z,25.70
2019-01-17T15:33:59.095Z,28.07
2019-01-17T15:36:28.616Z,25.47
2019-01-17T15:38:58.067Z,25.60
2019-01-17T15:41:28.669Z,24.83
2019-01-17T15:43:58.325Z,23.23
2019-01-17T15:46:28.241Z,21.07
2019-01-17T15:48:59.792Z,19.47
2019-01-17T15:51:29.351Z,19.93
2019-01-17T15:53:58.847Z,21.23
2019-01-17T15:56:28.355Z,18.33
2019-01-17T15:58:57.865Z,22.73
2019-01-17T16:01:27.711Z,19.03
2019-01-17T16:03:57.209Z,20.27
2019-01-17T16:06:26.715Z,22.17
2019-01-17T16:08:56.728Z,24.50
2019-01-17T16:11:26.230Z,20.97
2019-01-17T16:13:55.769Z,24.73
2019-01-17T16:16:25.304Z,26.23
2019-01-17T16:18:55.477Z,20.10
2019-01-17T16:21:24.990Z,20.83
2019-01-17T16:23:54.541Z,22.13
2019-01-17T16:26:24.012Z,24.73
2019-01-17T16:28:53.529Z,24.03
2019-01-17T16:31:22.975Z,26.43
2019-01-17T16:33:52.475Z,21.27
2019-01-17T16:36:22.018Z,26.63
2019-01-17T16:38:51.519Z,23.43
2019-01-17T16:41:23.126Z,25.40
2019-01-17T16:43:52.741Z,25.03
2019-01-17T16:46:22.218Z,26.40
2019-01-17T16:48:51.723Z,20.73
2019-01-17T16:51:21.307Z,29.13
2019-01-17T16:53:50.831Z,25.90
2019-01-17T16:56:20.598Z,29.53
2019-01-17T16:58:50.147Z,28.50
2019-01-17T17:01:19.638Z,26.70
2019-01-17T17:03:49.203Z,25.80
2019-01-17T17:06:18.783Z,25.90
2019-01-17T17:08:48.278Z,32.53
2019-01-17T17:11:17.754Z,27.73
2019-01-17T17:13:47.290Z,28.90
2019-01-17T17:16:16.796Z,27.80
2019-01-17T17:18:46.338Z,29.30
2019-01-17T17:21:15.850Z,23.63
2019-01-17T17:23:45.366Z,30.50
2019-01-17T17:26:16.007Z,28.90
2019-01-17T17:28:45.606Z,30.07
2019-01-17T17:31:15.142Z,31.10
2019-01-17T17:33:44.708Z,29.07
2019-01-17T17:36:14.261Z,30.37
2019-01-17T17:38:43.804Z,27.90
2019-01-17T17:41:13.404Z,30.03
2019-01-17T17:43:42.920Z,30.57
2019-01-17T17:46:12.394Z,32.10
2019-01-17T17:48:42.000Z,33.97
2019-01-17T17:51:11.466Z,30.50
2019-01-17T17:53:40.943Z,28.60
2019-01-17T17:56:10.834Z,29.77
2019-01-17T17:58:40.373Z,30.80
2019-01-17T18:01:22.461Z,35.80
2019-01-17T18:03:51.954Z,35.57
2019-01-17T18:06:21.389Z,26.10
2019-01-17T18:08:50.831Z,32.83
2019-01-17T18:11:20.319Z,31.27
2019-01-17T18:13:49.741Z,28.80
2019-01-17T18:16:19.195Z,35.63
2019-01-17T18:18:48.646Z,36.13
2019-01-17T18:21:18.250Z,35.97
2019-01-17T18:23:47.788Z,30.67
2019-01-17T18:26:17.345Z,32.87
2019-01-17T18:28:46.847Z,34.30
2019-01-17T18:31:16.298Z,34.13
2019-01-17T18:33:45.754Z,34.10
2019-01-17T18:36:15.227Z,36.83
2019-01-17T18:38:44.732Z,37.10
2019-01-17T18:41:14.200Z,33.30
2019-01-17T18:43:43.677Z,33.50
2019-01-17T18:46:13.118Z,32.33
2019-01-17T18:48:42.679Z,38.97
2019-01-17T18:51:12.151Z,39.20
2019-01-17T18:53:41.653Z,35.80
2019-01-17T18:56:11.227Z,38.43
2019-01-17T18:58:43.551Z,28.70
2019-01-17T19:01:13.063Z,31.87
2019-01-17T19:03:42.589Z,38.37
2019-01-17T19:06:12.051Z,30.87
2019-01-17T19:08:41.553Z,35.47
2019-01-17T19:11:10.985Z,31.10
2019-01-17T19:13:40.470Z,31.73
2019-01-17T19:16:09.960Z,32.10
2019-01-17T19:18:39.452Z,31.93
2019-01-17T19:21:08.967Z,35.03
2019-01-17T19:23:38.445Z,33.37
2019-01-17T19:26:07.906Z,33.17
2019-01-17T19:28:37.445Z,30.87
2019-01-17T19:31:06.896Z,36.20
2019-01-17T19:33:36.398Z,35.70
2019-01-17T19:36:06.000Z,38.47
2019-01-17T19:38:35.452Z,41.63
2019-01-17T19:41:05.142Z,37.13
2019-01-17T19:43:34.639Z,35.87
2019-01-17T19:46:04.538Z,50.43
2019-01-17T19:48:34.022Z,42.97
2019-01-17T19:51:03.548Z,44.53
2019-01-17T19:53:33.044Z,41.87
2019-01-17T19:56:02.533Z,42.87
2019-01-17T19:58:32.056Z,57.93
2019-01-17T20:01:01.626Z,40.23
2019-01-17T20:03:31.098Z,45.97
2019-01-17T20:06:00.642Z,59.70
2019-01-17T20:08:30.108Z,54.07
2019-01-17T20:10:59.640Z,46.03
2019-01-17T20:13:29.238Z,41.47
2019-01-17T20:15:58.726Z,45.43
2019-01-17T20:18:28.573Z,37.90
2019-01-17T20:20:58.446Z,34.00
2019-01-17T20:23:27.923Z,34.60
2019-01-17T20:25:57.546Z,38.23
2019-01-17T20:28:27.097Z,32.80
2019-01-17T20:30:56.588Z,35.20
2019-01-17T20:33:26.085Z,44.47
2019-01-17T20:35:57.559Z,40.17
2019-01-17T20:38:27.104Z,40.00
2019-01-17T20:40:58.321Z,37.77
2019-01-17T20:43:27.774Z,32.97
2019-01-17T20:45:57.295Z,34.00
2019-01-17T20:48:26.830Z,36.97
2019-01-17T20:50:56.321Z,38.23
2019-01-17T20:53:25.812Z,33.77
2019-01-17T20:55:55.343Z,36.47
2019-01-17T20:58:24.855Z,31.47
2019-01-17T21:01:30.839Z,32.20
2019-01-17T21:04:00.361Z,36.13
2019-01-17T21:06:29.841Z,34.03
2019-01-17T21:09:01.551Z,33.10
2019-01-17T21:11:31.032Z,35.83
2019-01-17T21:14:00.515Z,37.47
2019-01-17T21:16:30.105Z,39.77
2019-01-17T21:18:59.591Z,43.80
2019-01-17T21:21:29.055Z,36.53
2019-01-17T21:23:58.510Z,35.73
2019-01-17T21:26:29.232Z,30.43
2019-01-17T21:28:58.718Z,33.83
2019-01-17T21:31:28.883Z,33.40
2019-01-17T21:33:58.511Z,36.47
2019-01-17T21:36:29.445Z,33.83
2019-01-17T21:38:59.312Z,35.97
2019-01-17T21:41:28.849Z,33.43
2019-01-17T21:44:00.532Z,32.10
2019-01-17T21:46:30.040Z,41.90
2019-01-17T21:49:00.207Z,39.40
2019-01-17T21:51:29.832Z,35.70
2019-01-17T21:53:59.824Z,36.87
2019-01-17T21:56:31.844Z,34.07
2019-01-17T21:59:01.357Z,36.07
2019-01-17T22:01:31.185Z,35.37
2019-01-17T22:04:00.706Z,34.13
2019-01-17T22:06:30.195Z,40.07
2019-01-17T22:08:59.729Z,37.67
2019-01-17T22:11:29.499Z,41.57
2019-01-17T22:13:59.098Z,45.33
2019-01-17T22:16:28.961Z,40.57
2019-01-17T22:18:58.484Z,35.47
2019-01-17T22:21:28.054Z,38.43
2019-01-17T22:23:58.789Z,39.03
2019-01-17T22:26:28.539Z,34.63
2019-01-17T22:29:02.432Z,39.07
2019-01-17T22:31:29.352Z,34.80
2019-01-17T22:33:58.875Z,37.33
2019-01-17T22:36:28.474Z,42.17
2019-01-17T22:38:58.901Z,34.80
2019-01-17T22:41:29.829Z,38.30
2019-01-17T22:43:59.275Z,38.03
2019-01-17T22:46:28.707Z,37.27
2019-01-17T22:48:58.238Z,38.20
2019-01-17T22:51:28.071Z,38.57
2019-01-17T22:53:59.613Z,32.93
2019-01-17T22:56:29.041Z,34.70
2019-01-17T22:59:00.836Z,36.37
2019-01-17T23:01:31.039Z,37.60
2019-01-17T23:04:03.290Z,43.13
2019-01-17T23:06:32.792Z,34.07
2019-01-17T23:09:02.230Z,32.47
2019-01-17T23:11:31.684Z,33.23
2019-01-17T23:14:01.212Z,47.20
2019-01-17T23:16:30.677Z,38.67
2019-01-17T23:19:00.104Z,36.93
2019-01-17T23:21:31.606Z,42.53
2019-01-17T23:24:01.129Z,33.63
2019-01-17T23:26:30.682Z,38.37
2019-01-17T23:29:00.191Z,38.67
2019-01-17T23:31:29.615Z,34.67
2019-01-17T23:34:00.477Z,33.87
2019-01-17T23:36:31.381Z,40.83
2019-01-17T23:39:00.871Z,38.83
2019-01-17T23:41:30.355Z,37.30
2019-01-17T23:44:00.247Z,37.33
2019-01-17T23:46:31.756Z,35.00
2019-01-17T23:49:01.315Z,31.00
2019-01-17T23:51:30.773Z,33.43
2019-01-17T23:54:00.245Z,32.93
2019-01-17T23:56:31.080Z,37.57
2019-01-17T23:59:00.544Z,34.70
